Time;durP1;ratioP1;P1;durP2;ratioP2;P2;SDS_P1;SDS_P2;PMS_P1;PMS_P2;Temp;Humidity;BMP_temperature;BMP_pressure;BME280_temperature;BME280_humidity;BME280_pressure;Samples;Min_cycle;Max_cycle;Signal;HPM_P1;HPM_P2
2022/02/19 00:00:08;;;;;;;5.22;0.90;;;;;;;6.35;73.60;99122.47;6150429;28;20495;-74
2022/02/19 00:03:10;;;;;;;2.53;0.73;;;;;;;6.39;73.43;99135.34;6150841;28;20137;-77
2022/02/19 00:06:11;;;;;;;0.55;0.55;;;;;;;6.32;76.00;99127.06;6151326;28;20051;-77
2022/02/19 00:09:12;;;;;;;1.48;0.28;;;;;;;6.23;73.89;99138.91;6153156;28;20514;-76
2022/02/19 00:12:14;;;;;;;2.67;0.93;;;;;;;6.22;74.70;99155.50;6152058;28;20205;-77
2022/02/19 00:15:17;;;;;;;5.63;1.30;;;;;;;6.28;74.27;99134.22;6151693;29;20530;-80
2022/02/19 00:18:18;;;;;;;6.03;0.95;;;;;;;6.44;72.99;99151.53;6152495;28;20054;-76
2022/02/19 00:21:19;;;;;;;3.72;1.23;;;;;;;6.33;71.78;99246.97;6150001;28;20521;-79
2022/02/19 00:24:21;;;;;;;5.03;0.50;;;;;;;6.24;70.99;99171.03;6151136;28;20047;-79
2022/02/19 00:27:22;;;;;;;4.55;0.73;;;;;;;6.23;72.63;99143.28;6152151;28;20056;-78
2022/02/19 00:30:25;;;;;;;0.57;0.38;;;;;;;6.15;73.13;99168.97;6152769;29;20050;-76
2022/02/19 00:33:27;;;;;;;2.05;0.40;;;;;;;6.26;72.58;99175.22;6150918;28;20055;-76
2022/02/19 00:36:29;;;;;;;4.47;1.05;;;;;;;6.21;74.05;99192.06;6153078;28;20051;-79
2022/02/19 00:39:30;;;;;;;8.23;1.15;;;;;;;6.19;74.84;99215.66;6152057;28;20054;-77
2022/02/19 00:42:32;;;;;;;5.68;0.50;;;;;;;6.08;73.93;99205.00;6150146;28;20486;-77
2022/02/19 00:45:34;;;;;;;1.60;0.40;;;;;;;6.19;74.63;99196.56;6150144;28;20058;-78
2022/02/19 00:48:36;;;;;;;2.58;0.88;;;;;;;6.22;72.79;99238.97;6150558;28;20044;-76
2022/02/19 00:51:37;;;;;;;4.03;0.70;;;;;;;6.17;74.84;99191.41;6149532;28;20055;-79
2022/02/19 00:54:38;;;;;;;8.82;1.67;;;;;;;5.99;74.85;99235.06;6152077;28;20498;-77
2022/02/19 00:57:40;;;;;;;4.22;0.80;;;;;;;6.04;74.65;99235.66;6150123;29;20051;-79
2022/02/19 01:00:42;;;;;;;1.65;0.43;;;;;;;6.08;74.53;99268.44;6150323;28;20521;-76
2022/02/19 01:03:44;;;;;;;3.72;0.65;;;;;;;5.88;76.97;99255.69;6153182;28;20465;-79
2022/02/19 01:06:45;;;;;;;1.17;0.60;;;;;;;5.96;77.66;99263.13;6151052;28;20052;-76
2022/02/19 01:09:46;;;;;;;7.10;0.43;;;;;;;5.86;78.33;99247.16;6148588;28;20494;-75
2022/02/19 01:12:48;;;;;;;4.47;0.80;;;;;;;5.75;79.92;99279.03;6149924;28;20051;-78
2022/02/19 01:15:50;;;;;;;5.88;0.63;;;;;;;5.83;79.88;99271.59;6150294;28;20051;-76
2022/02/19 01:18:52;;;;;;;3.72;0.50;;;;;;;5.74;80.30;99281.72;6151227;28;20054;-76
2022/02/19 01:21:53;;;;;;;1.77;0.45;;;;;;;5.66;80.86;99282.16;6150568;28;20055;-77
2022/02/19 01:24:54;;;;;;;7.32;1.02;;;;;;;5.64;81.15;99297.06;6151644;28;20430;-77
2022/02/19 01:27:56;;;;;;;3.67;0.82;;;;;;;5.69;80.25;99268.97;6150272;28;20414;-76
2022/02/19 01:30:59;;;;;;;0.95;0.68;;;;;;;5.68;80.31;99293.34;6147591;28;20055;-75
2022/02/19 01:34:01;;;;;;;7.32;0.88;;;;;;;5.68;82.00;99314.19;6148465;28;20051;-75
2022/02/19 01:37:02;;;;;;;1.10;0.30;;;;;;;5.53;83.36;99334.09;6149820;28;20044;-76
2022/02/19 01:40:05;;;;;;;7.55;0.95;;;;;;;5.53;82.10;99326.28;6150885;28;20059;-82
2022/02/19 01:43:06;;;;;;;2.60;0.57;;;;;;;5.69;82.60;99367.16;6149310;28;20047;-76
2022/02/19 01:46:09;;;;;;;2.35;0.50;;;;;;;5.55;81.79;99334.88;6151824;28;20078;-77
2022/02/19 01:49:10;;;;;;;0.55;0.17;;;;;;;5.44;83.35;99347.66;6151991;28;20062;-79
2022/02/19 01:52:13;;;;;;;4.07;0.38;;;;;;;5.45;84.35;99338.94;6149812;28;20051;-75
2022/02/19 01:55:15;;;;;;;4.00;1.58;;;;;;;5.49;84.49;99363.03;6149222;28;20055;-76
2022/02/19 01:58:16;;;;;;;1.55;0.65;;;;;;;5.37;87.01;99363.72;6149369;28;20051;-75
2022/02/19 02:01:19;;;;;;;10.20;1.50;;;;;;;5.27;89.99;99351.19;6149834;28;20063;-76
2022/02/19 02:04:21;;;;;;;7.78;0.63;;;;;;;5.08;92.64;99399.94;6149978;28;20054;-75
2022/02/19 02:07:23;;;;;;;5.45;0.57;;;;;;;5.08;94.33;99366.09;6148718;28;20052;-75
2022/02/19 02:10:24;;;;;;;2.08;1.08;;;;;;;4.93;96.37;99385.13;6148616;28;20070;-77
2022/02/19 02:13:26;;;;;;;1.55;0.47;;;;;;;4.76;100.00;99423.25;6149144;28;20058;-76
2022/02/19 02:16:35;;;;;;;2.10;0.60;;;;;;;4.40;100.00;99477.13;6150493;28;20051;-80
2022/02/19 02:19:38;;;;;;;2.30;1.00;;;;;;;4.29;100.00;99433.44;6149809;28;20494;-76
2022/02/19 02:22:40;;;;;;;3.70;1.08;;;;;;;4.08;100.00;99437.91;6148672;28;20062;-77
2022/02/19 02:25:43;;;;;;;1.23;0.60;;;;;;;4.00;100.00;99435.69;6148821;28;20062;-75
2022/02/19 02:28:44;;;;;;;3.60;0.73;;;;;;;3.83;100.00;99459.03;6149713;28;20063;-79
2022/02/19 02:31:47;;;;;;;1.05;0.65;;;;;;;3.78;100.00;99461.84;6148825;28;20052;-76
2022/02/19 02:34:49;;;;;;;1.38;0.43;;;;;;;3.73;100.00;99479.41;6149099;28;20067;-77
2022/02/19 02:37:52;;;;;;;0.85;0.30;;;;;;;3.77;100.00;99474.88;6150584;28;20058;-76
2022/02/19 02:40:53;;;;;;;0.28;0.20;;;;;;;3.72;100.00;99479.44;6147690;28;20055;-76
2022/02/19 02:43:55;;;;;;;0.50;0.50;;;;;;;3.71;100.00;99504.59;6149266;28;20131;-76
2022/02/19 02:46:56;;;;;;;0.47;0.40;;;;;;;3.72;100.00;99503.66;6156012;23;20415;-80
2022/02/19 02:49:57;;;;;;;1.05;0.40;;;;;;;3.79;100.00;99497.28;6132810;28;20047;-81
2022/02/19 02:53:00;;;;;;;2.47;0.63;;;;;;;3.78;100.00;99526.78;6138268;29;20446;-79
2022/02/19 02:56:02;;;;;;;3.08;0.90;;;;;;;3.88;100.00;99552.38;6136685;28;20495;-79
2022/02/19 02:59:03;;;;;;;0.98;0.30;;;;;;;3.89;100.00;99535.84;6127244;28;20505;-78
2022/02/19 03:02:05;;;;;;;4.32;0.57;;;;;;;3.82;100.00;99558.69;6123479;29;20051;-78
2022/02/19 03:05:09;;;;;;;2.42;0.50;;;;;;;3.88;100.00;99576.59;6127215;29;20185;-80
2022/02/19 03:08:12;;;;;;;6.22;0.47;;;;;;;3.69;100.00;99581.75;6132101;28;20051;-79
2022/02/19 03:11:13;;;;;;;4.22;0.88;;;;;;;3.60;100.00;99586.53;6124718;28;20546;-80
2022/02/19 03:14:14;;;;;;;0.57;0.52;;;;;;;3.48;100.00;99603.47;6123906;29;20055;-80
2022/02/19 03:17:16;;;;;;;2.40;0.40;;;;;;;3.41;100.00;99594.25;6123664;29;20055;-81
2022/02/19 03:20:19;;;;;;;2.72;0.38;;;;;;;3.47;100.00;99615.59;6122929;29;20059;-79
2022/02/19 03:23:22;;;;;;;4.45;0.60;;;;;;;3.29;100.00;99642.34;6131703;29;20059;-80
2022/02/19 03:26:23;;;;;;;2.78;1.05;;;;;;;3.23;100.00;99648.66;6147189;28;20426;-79
2022/02/19 03:29:25;;;;;;;1.75;0.57;;;;;;;3.12;100.00;99657.75;6140842;28;20052;-80
2022/02/19 03:32:26;;;;;;;10.45;0.80;;;;;;;2.98;100.00;99653.13;6132119;28;20051;-81
2022/02/19 03:35:27;;;;;;;3.03;0.45;;;;;;;2.89;100.00;99664.72;6132098;29;20055;-81
2022/02/19 03:38:30;;;;;;;0.50;0.50;;;;;;;2.89;100.00;99687.22;6140480;29;20431;-79
2022/02/19 03:41:32;;;;;;;8.93;0.80;;;;;;;2.80;100.00;99699.63;6137289;28;20054;-79
2022/02/19 03:44:34;;;;;;;3.33;1.15;;;;;;;2.92;100.00;99702.69;6134432;28;20087;-80
2022/02/19 03:47:35;;;;;;;0.73;0.60;;;;;;;2.92;100.00;99745.03;6131148;29;20054;-79
2022/02/19 03:50:37;;;;;;;1.60;0.57;;;;;;;2.97;100.00;99750.06;6122667;29;20149;-81
2022/02/19 03:53:39;;;;;;;2.38;0.65;;;;;;;2.93;100.00;99769.22;6123635;29;20479;-80
2022/02/19 03:56:43;;;;;;;1.33;0.60;;;;;;;2.75;100.00;99781.97;6123248;29;20063;-81
2022/02/19 03:59:44;;;;;;;4.95;0.73;;;;;;;2.61;100.00;99784.25;6123150;29;20052;-79
2022/02/19 04:02:46;;;;;;;7.57;0.40;;;;;;;2.62;100.00;99803.22;6130516;29;20059;-83
2022/02/19 04:05:47;;;;;;;0.17;0.17;;;;;;;2.47;100.00;99818.44;6123147;29;20048;-79
2022/02/19 04:08:50;;;;;;;0.35;0.35;;;;;;;2.46;100.00;99802.94;6126422;29;20185;-78
2022/02/19 04:11:51;;;;;;;0.40;0.40;;;;;;;2.41;100.00;99810.88;6137779;28;20047;-79
2022/02/19 04:14:52;;;;;;;7.13;0.55;;;;;;;2.42;100.00;99830.72;6146711;28;20056;-79
2022/02/19 04:17:54;;;;;;;0.68;0.47;;;;;;;2.47;100.00;99820.19;6146958;28;20059;-83
2022/02/19 04:20:55;;;;;;;0.40;0.40;;;;;;;2.51;100.00;99820.03;6146365;28;20043;-83
2022/02/19 04:23:57;;;;;;;2.30;0.88;;;;;;;2.46;100.00;99849.63;6147156;28;20056;-82
2022/02/19 04:26:59;;;;;;;0.50;0.40;;;;;;;2.42;100.00;99863.59;6147338;28;20063;-83
2022/02/19 04:30:00;;;;;;;0.50;0.47;;;;;;;2.29;100.00;99861.41;6146671;28;20055;-81
2022/02/19 04:33:01;;;;;;;0.77;0.60;;;;;;;2.21;100.00;99897.09;6146134;28;20062;-81
2022/02/19 04:36:03;;;;;;;0.28;0.22;;;;;;;2.19;100.00;99878.16;6146461;28;20055;-79
2022/02/19 04:39:06;;;;;;;3.40;0.68;;;;;;;2.16;100.00;99883.44;6146573;28;20055;-80
2022/02/19 04:42:08;;;;;;;2.75;1.63;;;;;;;2.16;100.00;99893.81;6145472;28;20058;-80
2022/02/19 04:45:10;;;;;;;0.28;0.28;;;;;;;2.17;100.00;99912.78;6148898;28;20055;-78
2022/02/19 04:48:11;;;;;;;2.05;0.77;;;;;;;2.13;100.00;99940.56;6150571;28;20055;-80
2022/02/19 04:51:12;;;;;;;0.88;0.50;;;;;;;2.05;100.00;99936.53;6149398;28;20043;-80
2022/02/19 04:54:16;;;;;;;3.40;0.30;;;;;;;2.06;100.00;99938.22;6150214;28;20051;-80
2022/02/19 04:57:18;;;;;;;0.22;0.22;;;;;;;2.06;100.00;99964.13;6149989;28;20552;-80
2022/02/19 05:00:20;;;;;;;6.50;0.40;;;;;;;2.14;100.00;99941.44;6149587;28;20055;-80
2022/02/19 05:03:22;;;;;;;0.63;0.63;;;;;;;2.13;100.00;99961.28;6149841;28;20055;-81
2022/02/19 05:06:23;;;;;;;0.25;0.25;;;;;;;2.17;100.00;99980.19;6150072;28;20059;-80
2022/02/19 05:09:26;;;;;;;2.95;0.90;;;;;;;2.19;100.00;99994.81;6149684;28;20074;-80
2022/02/19 05:12:28;;;;;;;1.85;0.68;;;;;;;2.09;100.00;100003.78;6149329;28;20514;-81
2022/02/19 05:15:29;;;;;;;1.63;0.45;;;;;;;2.11;100.00;100003.72;6149441;28;20051;-81
2022/02/19 05:18:31;;;;;;;0.40;0.25;;;;;;;2.09;100.00;100023.63;6149702;28;20054;-80
2022/02/19 05:21:32;;;;;;;6.72;0.43;;;;;;;2.05;100.00;100007.34;6149184;28;20055;-80
2022/02/19 05:24:35;;;;;;;0.40;0.40;;;;;;;2.05;100.00;100025.47;6149847;28;20055;-81
2022/02/19 05:27:36;;;;;;;0.55;0.35;;;;;;;2.05;100.00;100022.03;6149166;28;20415;-78
2022/02/19 05:30:37;;;;;;;0.28;0.28;;;;;;;2.08;100.00;100034.88;6136333;28;20423;-81
2022/02/19 05:33:39;;;;;;;0.30;0.30;;;;;;;2.08;100.00;100043.50;6138543;29;20047;-81
2022/02/19 05:36:41;;;;;;;4.00;0.82;;;;;;;2.07;100.00;100048.75;6133267;28;20057;-81
2022/02/19 05:39:43;;;;;;;1.23;0.60;;;;;;;2.06;100.00;100111.84;6126926;28;20443;-81
2022/02/19 05:42:45;;;;;;;1.35;0.63;;;;;;;2.07;100.00;100083.28;6113427;28;20078;-80
2022/02/19 05:45:48;;;;;;;0.20;0.20;;;;;;;2.03;100.00;100074.75;6123777;28;20043;-79
2022/02/19 05:48:49;;;;;;;2.55;0.47;;;;;;;2.03;100.00;100094.63;6111578;28;20071;-80
2022/02/19 05:51:50;;;;;;;0.50;0.50;;;;;;;1.94;100.00;100095.75;6118452;28;20047;-80
2022/02/19 05:54:54;;;;;;;0.45;0.40;;;;;;;1.97;100.00;100095.66;6120486;28;20051;-80
2022/02/19 05:57:55;;;;;;;0.63;0.60;;;;;;;1.99;100.00;100106.81;6113807;28;20051;-80
2022/02/19 06:00:58;;;;;;;1.20;0.30;;;;;;;2.02;100.00;100113.66;6110860;29;20407;-80
2022/02/19 06:03:59;;;;;;;1.75;1.10;;;;;;;2.06;100.00;100120.47;6115630;28;20108;-81
2022/02/19 06:07:01;;;;;;;0.30;0.30;;;;;;;2.08;100.00;100134.22;6114574;29;20059;-81
2022/02/19 06:10:04;;;;;;;3.42;0.93;;;;;;;2.08;100.00;100143.72;6124856;29;20051;-81
2022/02/19 06:13:05;;;;;;;2.05;0.70;;;;;;;2.09;100.00;100159.25;6131757;29;20392;-80
2022/02/19 06:16:07;;;;;;;1.08;0.82;;;;;;;2.08;100.00;100178.28;6139378;29;20133;-81
2022/02/19 06:19:08;;;;;;;0.50;0.47;;;;;;;2.07;100.00;100188.69;6134467;28;20059;-81
2022/02/19 06:22:10;;;;;;;1.55;0.60;;;;;;;2.07;100.00;100175.72;6135689;28;20044;-81
2022/02/19 06:25:12;;;;;;;0.40;0.40;;;;;;;2.08;100.00;100190.38;6139374;29;20051;-81
2022/02/19 06:28:14;;;;;;;1.85;1.70;;;;;;;2.09;100.00;100199.84;6148546;28;20415;-80
2022/02/19 06:31:15;;;;;;;0.57;0.57;;;;;;;2.13;100.00;100204.06;6147593;28;20055;-80
2022/02/19 06:34:16;;;;;;;1.02;0.65;;;;;;;2.21;100.00;100221.09;6148601;28;20081;-80
2022/02/19 06:37:19;;;;;;;0.93;0.30;;;;;;;2.19;100.00;100212.53;6148106;28;20055;-80
2022/02/19 06:40:22;;;;;;;2.83;0.90;;;;;;;2.28;100.00;100221.81;6142288;28;20177;-80
2022/02/19 06:43:23;;;;;;;1.50;0.63;;;;;;;2.26;100.00;100232.19;6124439;29;20067;-80
2022/02/19 06:46:24;;;;;;;0.50;0.50;;;;;;;2.36;100.00;100222.41;6119377;28;20060;-80
2022/02/19 06:49:26;;;;;;;1.67;0.50;;;;;;;2.41;100.00;100232.69;6124152;29;20048;-80
2022/02/19 06:52:27;;;;;;;3.15;0.90;;;;;;;2.44;100.00;100246.38;6210729;28;20046;-80
2022/02/19 06:55:30;;;;;;;0.75;0.55;;;;;;;2.48;100.00;100260.13;6248354;28;20508;-80
2022/02/19 06:58:31;;;;;;;3.00;1.20;;;;;;;2.51;100.00;100275.63;6245755;28;20045;-80
2022/02/19 07:01:33;;;;;;;0.40;0.40;;;;;;;2.59;100.00;100281.44;6164663;28;20045;-79
2022/02/19 07:04:34;;;;;;;10.25;0.63;;;;;;;2.71;100.00;100288.00;6124031;29;20532;-80
2022/02/19 07:07:36;;;;;;;0.60;0.45;;;;;;;2.89;100.00;100297.00;6122813;29;20068;-80
2022/02/19 07:10:39;;;;;;;5.55;0.82;;;;;;;2.98;100.00;100302.78;6123251;29;20066;-80
2022/02/19 07:13:40;;;;;;;8.38;1.10;;;;;;;3.05;100.00;100308.66;6123594;29;20055;-78
2022/02/19 07:16:41;;;;;;;0.95;0.70;;;;;;;3.14;100.00;100310.97;6148199;28;20520;-80
2022/02/19 07:19:43;;;;;;;0.68;0.57;;;;;;;3.15;100.00;100315.28;6149764;28;20056;-81
2022/02/19 07:22:44;;;;;;;2.38;0.73;;;;;;;3.20;100.00;100331.56;6123905;29;20056;-81
2022/02/19 07:25:47;;;;;;;3.10;1.05;;;;;;;3.23;100.00;100334.06;6172681;28;20056;-81
2022/02/19 07:28:48;;;;;;;1.77;0.68;;;;;;;3.36;100.00;100347.53;6144180;28;20047;-81
2022/02/19 07:31:50;;;;;;;1.25;0.77;;;;;;;3.41;100.00;100344.81;6146245;28;20051;-80
2022/02/19 07:34:51;;;;;;;6.38;1.17;;;;;;;3.35;100.00;100364.00;6115772;28;20056;-80
2022/02/19 07:37:54;;;;;;;4.40;0.73;;;;;;;3.40;100.00;100362.13;6116828;29;20510;-81
2022/02/19 07:40:56;;;;;;;6.47;1.10;;;;;;;3.49;100.00;100376.56;6111589;29;20081;-81
2022/02/19 07:43:58;;;;;;;4.95;0.95;;;;;;;3.48;100.00;100386.13;6175694;28;20061;-82
2022/02/19 07:46:59;;;;;;;1.20;0.60;;;;;;;3.46;100.00;100406.09;6153090;28;20052;-82
2022/02/19 07:59:59;;;;;;;3.75;0.68;;;;;;;3.51;100.00;100450.97;6145317;29;20130;-80
2022/02/19 08:03:01;;;;;;;2.38;0.60;;;;;;;3.52;100.00;100428.44;6146465;28;20051;-81
2022/02/19 08:06:04;;;;;;;0.50;0.50;;;;;;;3.64;100.00;100454.06;6147015;28;20487;-80
2022/02/19 08:09:06;;;;;;;4.55;0.98;;;;;;;3.68;100.00;100466.09;6147520;28;20055;-79
2022/02/19 08:12:10;;;;;;;0.43;0.38;;;;;;;3.65;100.00;100460.97;6125351;28;20066;-79
2022/02/19 08:15:11;;;;;;;3.50;1.55;;;;;;;3.67;100.00;100495.53;6131310;29;20051;-81
2022/02/19 08:18:14;;;;;;;5.53;0.95;;;;;;;3.67;100.00;100487.75;6132792;29;20047;-79
2022/02/19 08:21:17;;;;;;;0.90;0.57;;;;;;;3.65;100.00;100501.69;6126571;29;20074;-79
2022/02/19 08:24:19;;;;;;;7.38;0.88;;;;;;;3.69;100.00;100503.31;6127072;29;20056;-80
2022/02/19 08:27:21;;;;;;;2.42;0.88;;;;;;;3.65;100.00;100510.34;6119776;29;20066;-80
2022/02/19 08:30:23;;;;;;;1.70;0.50;;;;;;;3.70;100.00;100520.59;6114963;29;20040;-80
2022/02/19 08:33:24;;;;;;;1.13;0.55;;;;;;;3.59;100.00;100552.09;6124182;29;20047;-79
2022/02/19 08:36:25;;;;;;;4.80;0.40;;;;;;;3.62;100.00;100526.00;6127581;29;20059;-80
2022/02/19 08:39:27;;;;;;;0.80;0.52;;;;;;;3.31;100.00;100552.81;6113958;28;20427;-79
2022/02/19 08:42:30;;;;;;;4.90;0.70;;;;;;;2.80;100.00;100521.28;6109824;28;20055;-79
2022/02/19 08:45:31;;;;;;;4.85;0.70;;;;;;;2.69;100.00;100537.13;6122595;29;20055;-80
2022/02/19 08:48:35;;;;;;;2.55;0.68;;;;;;;2.64;100.00;100535.53;6124495;28;20561;-79
2022/02/19 08:51:37;;;;;;;3.35;1.20;;;;;;;2.69;100.00;100552.69;6124259;28;20056;-80
2022/02/19 08:54:38;;;;;;;0.50;0.30;;;;;;;2.74;100.00;100532.66;6103706;29;20052;-79
2022/02/19 08:57:41;;;;;;;4.47;1.00;;;;;;;2.94;100.00;100565.03;6120451;28;20470;-80
2022/02/19 09:00:43;;;;;;;6.80;1.35;;;;;;;3.23;100.00;100570.38;6173752;28;20044;-80
2022/02/19 09:03:44;;;;;;;8.55;0.82;;;;;;;3.22;100.00;100578.19;6225204;28;20050;-80
2022/02/19 09:06:45;;;;;;;3.13;0.52;;;;;;;3.34;100.00;100570.06;6250791;28;20497;-79
2022/02/19 09:09:47;;;;;;;3.38;0.70;;;;;;;3.51;100.00;100564.44;6228882;28;20066;-79
2022/02/19 09:12:50;;;;;;;0.82;0.60;;;;;;;3.63;100.00;100579.66;6142067;28;20497;-79
2022/02/19 09:15:51;;;;;;;6.88;0.55;;;;;;;3.77;100.00;100576.69;6144779;28;20550;-79
2022/02/19 09:18:53;;;;;;;2.08;1.13;;;;;;;3.86;100.00;100591.16;6124624;28;20126;-79
2022/02/19 09:21:55;;;;;;;6.40;2.42;;;;;;;3.72;100.00;100595.00;6131002;28;20056;-80
2022/02/19 09:24:56;;;;;;;7.10;1.80;;;;;;;3.56;100.00;100610.19;6111416;28;20414;-80
2022/02/19 09:27:59;;;;;;;1.55;0.60;;;;;;;3.50;100.00;100607.75;6113227;29;20056;-80
2022/02/19 09:31:00;;;;;;;0.65;0.47;;;;;;;3.39;100.00;100616.69;6109915;28;20052;-80
2022/02/19 09:34:02;;;;;;;0.88;0.60;;;;;;;2.90;100.00;100621.34;6111577;29;20056;-80
2022/02/19 09:37:03;;;;;;;1.95;1.02;;;;;;;2.65;100.00;100625.44;6116250;28;20052;-81
2022/02/19 09:40:07;;;;;;;3.95;1.08;;;;;;;2.69;100.00;100599.38;6117289;28;20063;-80
2022/02/19 09:43:11;;;;;;;5.75;0.50;;;;;;;2.85;100.00;100615.44;6112104;29;20083;-80
2022/02/19 09:46:15;;;;;;;0.47;0.30;;;;;;;2.97;100.00;100622.94;6129800;28;20182;-80
2022/02/19 09:49:19;;;;;;;2.47;0.85;;;;;;;3.19;100.00;100620.66;6204862;28;20140;-81
2022/02/19 09:52:23;;;;;;;1.92;0.45;;;;;;;3.42;100.00;100622.69;6181862;28;20048;-79
2022/02/19 09:55:24;;;;;;;8.02;0.60;;;;;;;3.79;100.00;100642.50;6207512;28;20060;-80
2022/02/19 09:58:28;;;;;;;0.30;0.30;;;;;;;4.13;100.00;100628.53;6239008;28;20057;-80
2022/02/19 10:01:30;;;;;;;3.40;0.55;;;;;;;4.35;100.00;100632.22;6122771;28;20054;-82
2022/02/19 10:04:31;;;;;;;5.18;0.75;;;;;;;4.54;100.00;100633.41;6130934;28;20062;-80
2022/02/19 10:07:35;;;;;;;2.58;0.35;;;;;;;4.47;100.00;100641.44;6250336;28;20046;-82
2022/02/19 10:10:41;;;;;;;3.47;0.95;;;;;;;4.38;100.00;100645.16;6238847;28;20045;-82
2022/02/19 10:13:44;;;;;;;1.52;0.70;;;;;;;4.44;100.00;100659.72;6137079;29;20113;-79
2022/02/19 10:17:03;;;;;;;3.45;0.88;;;;;;;4.60;100.00;100655.78;6121727;29;20060;-79
2022/02/19 10:20:06;;;;;;;4.93;0.65;;;;;;;4.44;100.00;100662.31;6130281;29;20047;-78
2022/02/19 10:23:13;;;;;;;3.88;1.17;;;;;;;4.45;100.00;100657.09;6145938;29;20689;-78
2022/02/19 10:26:16;;;;;;;0.73;0.43;;;;;;;4.48;100.00;100656.97;6128476;28;20499;-79
2022/02/19 10:29:19;;;;;;;3.33;1.10;;;;;;;4.53;100.00;100670.69;6138101;28;20059;-80
2022/02/19 10:32:21;;;;;;;8.85;0.60;;;;;;;4.70;100.00;100687.56;6110491;28;20059;-80
2022/02/19 10:35:32;;;;;;;3.53;0.77;;;;;;;4.82;100.00;100706.28;6111517;28;20048;-80
2022/02/19 10:38:51;;;;;;;3.22;0.93;;;;;;;5.06;100.00;100696.00;6112073;28;20063;-80
2022/02/19 10:41:55;;;;;;;;;;;;;;;5.00;100.00;100691.84;6111164;28;20055;-80
2022/02/19 10:44:57;;;;;;;0.63;0.40;;;;;;;4.92;100.00;100709.47;6101211;28;19933;-80
2022/02/19 10:48:12;;;;;;;9.18;0.82;;;;;;;4.90;100.00;100705.19;6108949;29;20054;-78
2022/02/19 10:51:15;;;;;;;1.85;0.55;;;;;;;4.91;100.00;100709.53;6119444;28;20503;-79
2022/02/19 10:54:20;;;;;;;2.72;1.30;;;;;;;5.05;100.00;100731.63;6130988;29;20139;-77
2022/02/19 10:57:22;;;;;;;1.48;0.43;;;;;;;4.96;100.00;100713.69;6097333;28;20055;-78
2022/02/19 11:00:26;;;;;;;3.97;0.80;;;;;;;5.16;100.00;100707.84;6135683;28;20515;-79
2022/02/19 11:03:28;;;;;;;4.40;0.73;;;;;;;5.31;100.00;100699.56;6140079;28;20070;-80
2022/02/19 11:06:30;;;;;;;6.53;0.98;;;;;;;5.30;100.00;100715.22;6141838;28;20063;-77
2022/02/19 11:09:32;;;;;;;4.88;0.77;;;;;;;5.17;100.00;100726.91;6124222;28;20052;-76
2022/02/19 11:12:34;;;;;;;1.83;0.68;;;;;;;4.97;100.00;100724.94;6122829;29;20044;-76
2022/02/19 11:15:37;;;;;;;7.70;1.13;;;;;;;5.23;100.00;100729.34;6112498;29;20129;-77
2022/02/19 11:18:39;;;;;;;0.80;0.30;;;;;;;5.32;100.00;100734.28;6107019;29;20059;-75
2022/02/19 11:21:41;;;;;;;1.05;1.00;;;;;;;5.43;100.00;100728.69;6138065;28;20051;-77
2022/02/19 11:24:46;;;;;;;9.40;1.17;;;;;;;5.45;97.32;100708.66;6139412;28;20070;-76
2022/02/19 11:27:53;;;;;;;6.18;0.68;;;;;;;5.52;98.99;100726.66;6122888;29;20047;-76
2022/02/19 11:30:57;;;;;;;0.63;0.32;;;;;;;5.67;100.00;100716.59;6130141;28;20054;-76
2022/02/19 11:34:00;;;;;;;7.40;0.95;;;;;;;5.77;100.00;100721.47;6143487;29;20421;-76
2022/02/19 11:37:14;;;;;;;1.77;0.43;;;;;;;5.76;95.31;100729.34;6146781;28;20494;-76
2022/02/19 11:40:16;;;;;;;1.70;0.52;;;;;;;5.73;94.63;100724.25;6142183;28;20059;-76
2022/02/19 11:43:34;;;;;;;1.08;0.70;;;;;;;5.70;93.90;100721.72;6159318;28;20049;-76
2022/02/19 11:46:37;;;;;;;1.07;0.40;;;;;;;5.64;91.38;100722.78;6156479;28;20071;-78
2022/02/19 11:49:38;;;;;;;1.50;0.47;;;;;;;5.69;91.54;100720.88;6120272;28;20059;-77
2022/02/19 11:52:39;;;;;;;4.30;1.52;;;;;;;5.87;90.85;100736.81;6185520;28;20052;-77
2022/02/19 11:55:42;;;;;;;1.85;0.57;;;;;;;6.20;92.20;100740.88;6147169;28;20211;-77
2022/02/19 11:58:50;;;;;;;1.33;0.55;;;;;;;6.15;87.17;100747.19;6157469;28;20042;-77
2022/02/19 12:02:17;;;;;;;1.13;0.40;;;;;;;6.14;87.08;100741.09;6117535;29;20048;-76
2022/02/19 12:05:21;;;;;;;9.43;0.57;;;;;;;6.01;87.10;100751.13;6111291;29;20231;-77
2022/02/19 12:08:22;;;;;;;2.30;0.70;;;;;;;5.94;89.84;100747.00;6155671;28;20081;-76
2022/02/19 12:11:25;;;;;;;0.28;0.20;;;;;;;5.79;90.01;100740.53;6224142;28;20049;-76
2022/02/19 12:14:46;;;;;;;2.38;1.15;;;;;;;5.88;89.76;100743.72;6226994;28;20508;-77
2022/02/19 12:17:48;;;;;;;1.00;0.50;;;;;;;6.24;87.08;100745.09;6227451;28;20050;-77
2022/02/19 12:20:50;;;;;;;0.82;0.47;;;;;;;6.43;82.97;100758.31;6227381;28;20097;-76
2022/02/19 12:24:10;;;;;;;5.43;1.35;;;;;;;6.32;81.59;100757.88;6227668;28;20046;-77
2022/02/19 12:27:13;;;;;;;1.15;0.40;;;;;;;6.25;81.96;100740.72;6226793;28;20081;-77
2022/02/19 12:30:24;;;;;;;1.42;0.43;;;;;;;6.25;82.37;100757.22;6226055;28;20429;-76
2022/02/19 12:33:28;;;;;;;1.55;0.77;;;;;;;6.23;82.29;100792.97;6227093;28;20045;-77
2022/02/19 12:36:30;;;;;;;6.18;1.63;;;;;;;6.15;82.59;100768.91;6226896;28;20050;-76
2022/02/19 12:39:35;;;;;;;0.65;0.40;;;;;;;6.40;84.25;100781.91;6227227;28;20050;-76
2022/02/19 12:42:36;;;;;;;5.38;0.30;;;;;;;6.68;81.57;100787.03;6124143;28;20056;-76
2022/02/19 12:45:37;;;;;;;0.90;0.55;;;;;;;6.93;81.42;100783.50;6117193;29;20052;-76
2022/02/19 12:48:40;;;;;;;0.90;0.32;;;;;;;6.87;82.00;100781.97;6123829;28;20510;-77
2022/02/19 12:51:41;;;;;;;1.73;0.60;;;;;;;7.14;80.26;100751.31;6156034;28;20051;-77
2022/02/19 12:54:45;;;;;;;2.00;0.55;;;;;;;7.21;80.06;100758.00;6115816;29;20052;-77
2022/02/19 12:57:48;;;;;;;1.83;0.63;;;;;;;7.20;78.80;100753.69;6102151;28;20056;-76
2022/02/19 13:00:52;;;;;;;0.82;0.52;;;;;;;7.25;75.88;100743.91;6101837;28;20496;-79
2022/02/19 13:03:55;;;;;;;1.65;1.30;;;;;;;7.09;79.43;100761.97;6106542;28;20053;-75
2022/02/19 13:06:57;;;;;;;2.35;0.88;;;;;;;7.32;79.77;100755.81;6101363;28;20056;-78
2022/02/19 13:10:00;;;;;;;1.05;0.40;;;;;;;7.34;76.70;100750.53;6135178;28;20533;-79
2022/02/19 13:13:01;;;;;;;1.50;0.68;;;;;;;7.09;79.72;100780.25;6172917;28;20051;-80
2022/02/19 13:16:02;;;;;;;2.17;0.60;;;;;;;7.00;78.53;100775.38;6238210;28;20421;-82
2022/02/19 13:19:05;;;;;;;0.73;0.35;;;;;;;6.70;81.37;100779.97;6251103;28;20615;-81
2022/02/19 13:22:09;;;;;;;0.98;0.25;;;;;;;6.82;82.83;100784.75;6250072;28;20050;-81
2022/02/19 13:25:12;;;;;;;1.58;0.52;;;;;;;7.12;78.92;100779.25;6250883;28;20045;-81
2022/02/19 13:28:14;;;;;;;5.38;0.57;;;;;;;7.15;78.58;100776.53;6250460;28;20053;-79
2022/02/19 13:31:16;;;;;;;11.63;1.13;;;;;;;7.23;73.39;100781.47;6222198;28;20056;-81
2022/02/19 13:34:18;;;;;;;4.88;0.55;;;;;;;7.17;72.21;100781.69;6166597;28;20051;-80
2022/02/19 13:37:20;;;;;;;3.72;0.30;;;;;;;6.74;74.30;100778.94;6207505;28;20045;-81
2022/02/19 13:40:29;;;;;;;2.10;0.22;;;;;;;6.51;74.50;100776.34;6250543;28;20049;-80
2022/02/19 13:43:30;;;;;;;2.33;0.68;;;;;;;6.67;76.48;100760.94;6250026;28;20050;-73
2022/02/19 13:46:31;;;;;;;1.55;1.17;;;;;;;7.18;76.45;100752.06;6249161;28;20053;-72
2022/02/19 13:49:39;;;;;;;1.15;0.55;;;;;;;7.66;73.04;100748.38;6214018;28;20049;-76
2022/02/19 13:52:43;;;;;;;1.85;0.50;;;;;;;7.88;71.97;100762.25;6125215;29;20056;-78
2022/02/19 13:55:49;;;;;;;6.03;0.88;;;;;;;7.95;69.98;100763.72;6125866;29;20566;-83
2022/02/19 13:58:54;;;;;;;2.75;0.35;;;;;;;7.95;70.74;100766.34;6126316;29;20471;-82
2022/02/19 14:01:56;;;;;;;1.58;0.35;;;;;;;7.71;74.60;100764.72;6124986;29;20059;-82
2022/02/19 14:05:00;;;;;;;2.55;0.57;;;;;;;7.20;74.47;100769.38;6125824;29;20063;-82
2022/02/19 14:08:01;;;;;;;3.40;0.88;;;;;;;6.81;77.76;100770.00;6125723;29;20825;-80
2022/02/19 14:11:04;;;;;;;5.20;1.30;;;;;;;6.94;79.26;100761.69;6124807;29;20048;-80
2022/02/19 14:14:06;;;;;;;2.10;0.90;;;;;;;7.27;76.29;100751.69;6126373;29;20058;-82
2022/02/19 14:17:09;;;;;;;0.77;0.38;;;;;;;7.01;77.65;100745.72;6125944;29;20055;-81
2022/02/19 14:20:14;;;;;;;2.15;0.80;;;;;;;6.85;76.76;100761.09;6125400;29;20139;-80
2022/02/19 14:23:19;;;;;;;5.50;0.30;;;;;;;6.84;77.38;100754.19;6126192;29;20339;-80
2022/02/19 14:26:20;;;;;;;1.10;0.75;;;;;;;6.96;76.11;100759.88;6125288;29;20047;-81